createdAt,value
2018-12-31T00:01:42.419Z,4.30
2018-12-31T00:04:11.568Z,3.83
2018-12-31T00:06:40.736Z,5.17
2018-12-31T00:09:09.933Z,4.75
2018-12-31T00:11:39.540Z,4.78
2018-12-31T00:14:09.143Z,4.42
2018-12-31T00:16:39.509Z,5.37
2018-12-31T00:19:08.756Z,4.80
2018-12-31T00:21:37.911Z,4.62
2018-12-31T00:24:07.149Z,4.83
2018-12-31T00:26:36.301Z,5.72
2018-12-31T00:29:05.472Z,4.70
2018-12-31T00:31:34.683Z,4.60
2018-12-31T00:34:04.506Z,5.25
2018-12-31T00:36:33.917Z,5.95
2018-12-31T00:39:04.554Z,7.15
2018-12-31T00:41:34.261Z,5.90
2018-12-31T00:44:03.492Z,7.30
2018-12-31T00:46:33.735Z,8.50
2018-12-31T00:49:02.955Z,8.70
2018-12-31T00:51:32.115Z,9.18
2018-12-31T00:54:01.452Z,8.73
2018-12-31T00:56:30.736Z,10.10
2018-12-31T00:59:00.560Z,11.25
2018-12-31T01:01:30.688Z,11.43
2018-12-31T01:04:00.163Z,11.65
2018-12-31T01:06:29.848Z,10.38
2018-12-31T01:09:00.113Z,11.83
2018-12-31T01:11:30.880Z,10.60
2018-12-31T01:14:00.164Z,10.60
2018-12-31T01:16:30.054Z,9.88
2018-12-31T01:18:59.915Z,9.55
2018-12-31T01:21:29.071Z,10.08
2018-12-31T01:23:59.328Z,9.30
2018-12-31T01:26:29.040Z,9.13
2018-12-31T01:28:59.172Z,9.60
2018-12-31T01:31:28.916Z,9.05
2018-12-31T01:33:58.172Z,10.48
2018-12-31T01:36:29.162Z,9.85
2018-12-31T01:38:58.393Z,9.90
2018-12-31T01:41:27.543Z,9.90
2018-12-31T01:43:57.140Z,10.48
2018-12-31T01:46:26.431Z,9.60
2018-12-31T01:48:55.640Z,8.93
2018-12-31T01:51:25.700Z,9.03
2018-12-31T01:53:55.079Z,9.58
2018-12-31T01:56:24.603Z,8.30
2018-12-31T01:58:53.823Z,7.62
2018-12-31T02:01:23.012Z,8.43
2018-12-31T02:03:53.158Z,8.68
2018-12-31T02:06:22.695Z,7.83
2018-12-31T02:08:51.940Z,8.10
2018-12-31T02:11:21.410Z,7.40
2018-12-31T02:13:50.572Z,5.17
2018-12-31T02:16:19.757Z,4.62
2018-12-31T02:18:49.245Z,5.10
2018-12-31T02:21:18.490Z,5.15
2018-12-31T02:23:47.759Z,4.10
2018-12-31T02:26:16.951Z,3.50
2018-12-31T02:28:46.723Z,3.83
2018-12-31T02:31:15.888Z,5.17
2018-12-31T02:33:45.219Z,4.22
2018-12-31T02:36:14.476Z,4.65
2018-12-31T02:38:43.647Z,6.30
2018-12-31T02:41:12.796Z,5.60
2018-12-31T02:43:42.036Z,6.03
2018-12-31T02:46:11.214Z,7.30
2018-12-31T02:48:40.357Z,8.33
2018-12-31T02:51:10.153Z,8.48
2018-12-31T02:53:39.706Z,7.42
2018-12-31T02:56:08.928Z,8.30
2018-12-31T02:58:38.095Z,7.75
2018-12-31T03:01:08.215Z,9.35
2018-12-31T03:03:37.596Z,8.90
2018-12-31T03:06:06.774Z,8.38
2018-12-31T03:08:36.015Z,8.78
2018-12-31T03:11:05.204Z,8.18
2018-12-31T03:13:34.788Z,7.80
2018-12-31T03:16:04.037Z,8.00
2018-12-31T03:18:33.441Z,8.00
2018-12-31T03:21:02.650Z,6.15
2018-12-31T03:23:32.635Z,6.42
2018-12-31T03:26:01.782Z,5.20
2018-12-31T03:28:31.024Z,4.60
2018-12-31T03:31:00.193Z,4.72
2018-12-31T03:33:30.372Z,5.00
2018-12-31T03:36:00.318Z,4.62
2018-12-31T03:38:29.480Z,4.50
2018-12-31T03:40:58.700Z,4.78
2018-12-31T03:43:28.429Z,4.50
2018-12-31T03:45:58.412Z,5.00
2018-12-31T03:48:28.435Z,5.75
2018-12-31T03:50:58.439Z,4.58
2018-12-31T03:53:27.608Z,5.47
2018-12-31T03:55:56.757Z,5.47
2018-12-31T03:58:25.901Z,5.15
2018-12-31T04:00:55.663Z,4.67
2018-12-31T04:03:24.819Z,5.53
2018-12-31T04:05:54.033Z,5.62
2018-12-31T04:08:23.581Z,4.90
2018-12-31T04:10:53.052Z,4.95
2018-12-31T04:13:22.904Z,4.25
2018-12-31T04:15:52.788Z,4.15
2018-12-31T04:18:22.011Z,4.08
2018-12-31T04:20:51.890Z,3.95
2018-12-31T04:23:22.113Z,4.20
2018-12-31T04:25:51.772Z,4.00
2018-12-31T04:28:20.936Z,3.40
2018-12-31T04:30:50.115Z,3.10
2018-12-31T04:33:19.261Z,3.15
2018-12-31T04:35:48.455Z,3.30
2018-12-31T04:38:17.628Z,2.85
2018-12-31T04:40:46.771Z,3.62
2018-12-31T04:43:16.529Z,2.70
2018-12-31T04:45:45.759Z,2.95
2018-12-31T04:48:14.913Z,2.80
2018-12-31T04:50:44.084Z,2.60
2018-12-31T04:53:13.260Z,2.87
2018-12-31T04:55:44.604Z,2.60
2018-12-31T04:58:13.357Z,2.47
2018-12-31T05:00:42.520Z,2.72
2018-12-31T05:03:12.283Z,3.02
2018-12-31T05:05:41.522Z,3.17
2018-12-31T05:08:10.663Z,2.85
2018-12-31T05:10:39.831Z,2.83
2018-12-31T05:13:09.393Z,3.40
2018-12-31T05:15:38.560Z,3.37
2018-12-31T05:18:08.031Z,4.58
2018-12-31T05:20:37.618Z,4.55
2018-12-31T05:23:07.036Z,4.33
2018-12-31T05:25:36.238Z,4.10
2018-12-31T05:28:06.400Z,4.62
2018-12-31T05:30:36.011Z,5.28
2018-12-31T05:33:05.189Z,5.03
2018-12-31T05:35:34.432Z,4.55
2018-12-31T05:38:03.664Z,3.30
2018-12-31T05:40:32.897Z,3.20
2018-12-31T05:43:02.374Z,3.37
2018-12-31T05:45:31.636Z,2.62
2018-12-31T05:48:01.411Z,2.20
2018-12-31T05:50:30.652Z,2.20
2018-12-31T05:52:59.799Z,2.10
2018-12-31T05:55:28.969Z,2.40
2018-12-31T05:57:58.151Z,2.30
2018-12-31T06:00:27.299Z,1.67
2018-12-31T06:02:57.565Z,1.80
2018-12-31T06:05:26.747Z,2.25
2018-12-31T06:07:55.900Z,2.30
2018-12-31T06:10:25.067Z,2.27
2018-12-31T06:12:56.668Z,2.08
2018-12-31T06:15:26.196Z,2.30
2018-12-31T06:17:55.503Z,1.42
2018-12-31T06:20:24.903Z,1.00
2018-12-31T06:22:54.496Z,1.00
2018-12-31T06:25:23.967Z,1.00
2018-12-31T06:27:53.144Z,0.93
2018-12-31T06:30:22.376Z,1.15
2018-12-31T06:32:51.581Z,1.00
2018-12-31T06:35:20.850Z,1.32
2018-12-31T06:37:50.729Z,1.12
2018-12-31T06:40:19.906Z,1.12
2018-12-31T06:42:49.136Z,1.20
2018-12-31T06:45:18.321Z,1.10
2018-12-31T06:47:47.530Z,1.12
2018-12-31T06:50:16.783Z,1.00
2018-12-31T06:52:46.064Z,1.25
2018-12-31T06:55:15.321Z,1.12
2018-12-31T06:57:44.627Z,1.20
2018-12-31T07:00:13.807Z,1.35
2018-12-31T07:02:43.039Z,1.20
2018-12-31T07:05:12.566Z,1.50
2018-12-31T07:07:41.723Z,1.37
2018-12-31T07:10:10.892Z,1.60
2018-12-31T07:12:40.947Z,1.98
2018-12-31T07:15:10.211Z,1.90
2018-12-31T07:17:39.383Z,1.90
2018-12-31T07:20:08.589Z,1.87
2018-12-31T07:22:37.811Z,1.90
2018-12-31T07:25:07.560Z,1.60
2018-12-31T07:27:36.735Z,1.35
2018-12-31T07:30:06.840Z,1.52
2018-12-31T07:32:37.190Z,1.32
2018-12-31T07:35:06.369Z,1.55
2018-12-31T07:37:36.215Z,1.42
2018-12-31T07:40:06.161Z,1.30
2018-12-31T07:42:35.419Z,0.95
2018-12-31T07:45:05.140Z,1.02
2018-12-31T07:47:34.311Z,0.98
2018-12-31T07:50:03.569Z,0.95
2018-12-31T07:52:33.487Z,1.12
2018-12-31T07:55:03.743Z,1.50
2018-12-31T07:57:33.143Z,1.10
2018-12-31T08:00:03.230Z,1.17
2018-12-31T08:02:32.469Z,1.32
2018-12-31T08:05:01.744Z,1.30
2018-12-31T08:07:31.472Z,1.37
2018-12-31T08:10:00.640Z,1.32
2018-12-31T08:12:30.111Z,1.70
2018-12-31T08:14:59.255Z,1.72
2018-12-31T08:17:28.511Z,1.80
2018-12-31T08:19:57.759Z,2.72
2018-12-31T08:22:26.908Z,2.70
2018-12-31T08:24:56.547Z,1.90
2018-12-31T08:27:26.230Z,1.65
2018-12-31T08:29:56.272Z,2.30
2018-12-31T08:32:27.390Z,2.12
2018-12-31T08:34:56.956Z,1.90
2018-12-31T08:37:26.944Z,2.02
2018-12-31T08:39:56.345Z,1.98
2018-12-31T08:42:26.653Z,1.52
2018-12-31T08:44:56.311Z,1.80
2018-12-31T08:47:25.496Z,2.02
2018-12-31T08:49:55.362Z,1.95
2018-12-31T08:52:26.497Z,1.72
2018-12-31T08:54:56.077Z,1.55
2018-12-31T08:57:25.301Z,1.90
2018-12-31T08:59:54.573Z,1.72
2018-12-31T09:02:24.389Z,1.60
2018-12-31T09:04:54.241Z,2.20
2018-12-31T09:07:24.175Z,2.20
2018-12-31T09:09:53.327Z,2.25
2018-12-31T09:12:23.121Z,2.15
2018-12-31T09:14:52.375Z,2.40
2018-12-31T09:17:21.904Z,2.42
2018-12-31T09:19:52.414Z,2.45
2018-12-31T09:22:22.240Z,2.37
2018-12-31T09:24:51.397Z,2.47
2018-12-31T09:27:20.591Z,2.80
2018-12-31T09:29:49.887Z,2.42
2018-12-31T09:32:20.115Z,2.67
2018-12-31T09:34:49.311Z,2.62
2018-12-31T09:37:19.136Z,2.47
2018-12-31T09:39:48.303Z,2.58
2018-12-31T09:42:17.510Z,2.77
2018-12-31T09:44:47.216Z,3.00
2018-12-31T09:47:16.434Z,2.90
2018-12-31T09:49:45.809Z,2.90
2018-12-31T09:52:15.553Z,2.92
2018-12-31T09:54:44.807Z,2.90
2018-12-31T09:57:13.977Z,3.15
2018-12-31T09:59:43.727Z,2.80
2018-12-31T10:02:12.904Z,3.15
2018-12-31T10:04:42.127Z,2.70
2018-12-31T10:07:12.392Z,3.00
2018-12-31T10:09:41.558Z,3.00
2018-12-31T10:12:10.796Z,3.12
2018-12-31T10:14:41.360Z,3.15
2018-12-31T10:17:12.821Z,2.95
2018-12-31T10:19:42.247Z,3.17
2018-12-31T10:22:11.435Z,3.60
2018-12-31T10:24:40.946Z,3.10
2018-12-31T10:27:10.184Z,3.37
2018-12-31T10:29:39.368Z,3.10
2018-12-31T10:32:08.587Z,2.60
2018-12-31T10:34:37.757Z,2.90
2018-12-31T10:37:07.004Z,2.77
2018-12-31T10:39:36.318Z,2.52
2018-12-31T10:42:05.698Z,2.55
2018-12-31T10:44:34.955Z,3.05
2018-12-31T10:47:04.821Z,3.00
2018-12-31T10:49:33.996Z,6.08
2018-12-31T10:52:03.647Z,3.35
2018-12-31T10:54:33.931Z,3.33
2018-12-31T10:57:18.309Z,3.27
2018-12-31T10:59:47.543Z,3.20
2018-12-31T11:02:16.727Z,3.20
2018-12-31T11:04:47.651Z,3.20
2018-12-31T11:07:17.650Z,3.15
2018-12-31T11:09:47.711Z,2.77
2018-12-31T11:12:16.906Z,5.62
2018-12-31T11:14:46.245Z,3.75
2018-12-31T11:17:15.427Z,3.65
2018-12-31T11:19:44.679Z,11.28
2018-12-31T11:22:13.839Z,4.22
2018-12-31T11:24:43.046Z,3.40
2018-12-31T11:27:12.283Z,3.40
2018-12-31T11:29:41.500Z,4.03
2018-12-31T11:32:11.040Z,7.00
2018-12-31T11:34:40.283Z,5.05
2018-12-31T11:37:10.018Z,5.60
2018-12-31T11:39:39.267Z,3.37
2018-12-31T11:42:09.097Z,3.42
2018-12-31T11:44:38.320Z,2.75
2018-12-31T11:47:07.484Z,2.98
2018-12-31T11:49:36.699Z,2.90
2018-12-31T11:52:06.000Z,2.80
2018-12-31T11:54:35.688Z,3.65
2018-12-31T11:57:04.861Z,3.35
2018-12-31T11:59:34.007Z,2.77
2018-12-31T12:02:03.817Z,4.85
2018-12-31T12:04:33.699Z,5.12
2018-12-31T12:07:09.469Z,3.85
2018-12-31T12:09:38.945Z,3.70
2018-12-31T12:12:08.192Z,2.80
2018-12-31T12:14:37.706Z,2.20
2018-12-31T12:17:07.368Z,2.83
2018-12-31T12:19:36.795Z,2.50
2018-12-31T12:22:05.975Z,2.95
2018-12-31T12:24:35.226Z,4.87
2018-12-31T12:27:05.455Z,9.70
2018-12-31T12:29:34.706Z,6.83
2018-12-31T12:32:03.963Z,6.10
2018-12-31T12:34:33.187Z,3.02
2018-12-31T12:37:02.375Z,2.55
2018-12-31T12:39:31.629Z,2.60
2018-12-31T12:42:01.553Z,2.67
2018-12-31T12:44:32.039Z,2.55
2018-12-31T12:47:01.311Z,2.95
2018-12-31T12:49:30.537Z,3.17
2018-12-31T12:51:59.787Z,7.12
2018-12-31T12:54:29.530Z,5.95
2018-12-31T12:56:58.750Z,2.80
2018-12-31T12:59:28.055Z,3.47
2018-12-31T13:01:57.241Z,2.65
2018-12-31T13:04:26.702Z,3.67
2018-12-31T13:06:56.215Z,3.47
2018-12-31T13:09:25.476Z,4.70
2018-12-31T13:11:54.709Z,3.35
2018-12-31T13:14:24.851Z,2.83
2018-12-31T13:16:54.131Z,2.80
2018-12-31T13:19:23.681Z,2.55
2018-12-31T13:21:53.567Z,3.27
2018-12-31T13:24:22.836Z,2.60
2018-12-31T13:26:52.060Z,4.55
2018-12-31T13:29:21.340Z,2.70
2018-12-31T13:31:50.564Z,2.67
2018-12-31T13:34:19.809Z,2.87
2018-12-31T13:36:50.353Z,2.77
2018-12-31T13:39:19.608Z,2.80
2018-12-31T13:41:49.485Z,3.17
2018-12-31T13:44:18.671Z,3.00
2018-12-31T13:46:47.920Z,2.77
2018-12-31T13:49:17.146Z,2.70
2018-12-31T13:51:46.401Z,2.98
2018-12-31T13:54:15.652Z,2.67
2018-12-31T13:56:45.619Z,3.47
2018-12-31T13:59:15.326Z,2.77
2018-12-31T14:01:44.568Z,2.90
2018-12-31T14:04:14.155Z,3.50
2018-12-31T14:06:44.957Z,3.50
2018-12-31T14:09:14.264Z,3.92
2018-12-31T14:11:43.491Z,3.37
2018-12-31T14:14:13.145Z,2.90
2018-12-31T14:16:42.802Z,3.58
2018-12-31T14:19:12.552Z,3.33
2018-12-31T14:21:41.779Z,3.80
2018-12-31T14:24:11.024Z,2.90
2018-12-31T14:26:40.252Z,3.02
2018-12-31T14:29:09.916Z,3.00
2018-12-31T14:31:39.168Z,3.37
2018-12-31T14:34:08.883Z,9.23
2018-12-31T14:36:38.552Z,3.58
2018-12-31T14:39:07.805Z,2.83
2018-12-31T14:41:37.727Z,3.52
2018-12-31T14:44:06.975Z,3.30
2018-12-31T14:46:36.732Z,4.58
2018-12-31T14:49:07.604Z,7.50
2018-12-31T14:51:36.827Z,5.92
2018-12-31T14:54:06.956Z,3.62
2018-12-31T14:56:36.186Z,3.87
2018-12-31T14:59:05.437Z,3.42
2018-12-31T15:01:35.195Z,3.98
2018-12-31T15:04:04.424Z,2.83
2018-12-31T15:06:33.652Z,2.98
2018-12-31T15:09:04.468Z,2.87
2018-12-31T15:11:33.692Z,2.45
2018-12-31T15:14:03.477Z,2.30
2018-12-31T15:16:32.760Z,3.87
2018-12-31T15:19:03.262Z,3.45
2018-12-31T15:21:33.097Z,3.12
2018-12-31T15:24:02.365Z,2.70
2018-12-31T15:26:32.031Z,2.72
2018-12-31T15:29:01.287Z,2.90
2018-12-31T15:31:31.117Z,2.83
2018-12-31T15:34:00.923Z,3.37
2018-12-31T15:36:30.180Z,3.40
2018-12-31T15:38:59.437Z,2.87
2018-12-31T15:41:28.660Z,3.10
2018-12-31T15:43:57.907Z,2.87
2018-12-31T15:46:27.164Z,3.17
2018-12-31T15:48:56.499Z,3.50
2018-12-31T15:51:25.743Z,3.70
2018-12-31T15:53:55.089Z,4.50
2018-12-31T15:56:25.280Z,4.40
2018-12-31T15:58:54.541Z,4.17
2018-12-31T16:01:24.500Z,3.70
2018-12-31T16:03:53.655Z,3.27
2018-12-31T16:06:22.909Z,3.15
2018-12-31T16:08:52.511Z,3.05
2018-12-31T16:11:21.744Z,3.37
2018-12-31T16:13:51.204Z,3.00
2018-12-31T16:16:20.590Z,3.75
2018-12-31T16:18:49.815Z,3.70
2018-12-31T16:21:19.068Z,3.22
2018-12-31T16:23:48.744Z,2.95
2018-12-31T16:26:18.263Z,2.98
2018-12-31T16:28:47.583Z,3.33
2018-12-31T16:31:16.913Z,2.95
2018-12-31T16:33:46.544Z,2.92
2018-12-31T16:36:16.004Z,3.25
2018-12-31T16:38:45.540Z,2.98
2018-12-31T16:41:14.787Z,2.95
2018-12-31T16:43:44.062Z,3.33
2018-12-31T16:46:13.737Z,3.98
2018-12-31T16:48:42.973Z,3.42
2018-12-31T16:51:13.260Z,3.95
2018-12-31T16:53:45.145Z,4.90
2018-12-31T16:56:14.993Z,3.67
2018-12-31T16:58:44.305Z,3.98
2018-12-31T17:01:13.567Z,3.12
2018-12-31T17:03:42.795Z,3.70
2018-12-31T17:06:12.047Z,3.55
2018-12-31T17:08:42.033Z,3.40
2018-12-31T17:11:11.260Z,4.30
2018-12-31T17:13:40.627Z,4.37
2018-12-31T17:16:10.784Z,3.58
2018-12-31T17:18:40.651Z,5.35
2018-12-31T17:21:09.883Z,13.58
2018-12-31T17:23:42.007Z,13.95
2018-12-31T17:26:11.224Z,7.33
2018-12-31T17:28:40.555Z,8.10
2018-12-31T17:31:10.635Z,12.33
2018-12-31T17:33:40.444Z,5.22
2018-12-31T17:36:09.590Z,6.45
2018-12-31T17:38:39.836Z,9.55
2018-12-31T17:41:09.061Z,4.60
2018-12-31T17:43:47.495Z,5.03
2018-12-31T17:46:16.718Z,5.45
2018-12-31T17:48:45.963Z,4.20
2018-12-31T17:51:15.400Z,3.70
2018-12-31T17:53:45.301Z,3.47
2018-12-31T17:56:14.597Z,2.75
2018-12-31T17:58:44.301Z,3.30
2018-12-31T18:01:13.527Z,3.12
2018-12-31T18:03:42.837Z,2.65
2018-12-31T18:06:12.296Z,3.37
2018-12-31T18:08:41.511Z,3.20
2018-12-31T18:11:11.051Z,3.67
2018-12-31T18:13:40.308Z,3.47
2018-12-31T18:16:10.804Z,3.45
2018-12-31T18:18:40.045Z,3.22
2018-12-31T18:21:09.224Z,2.65
2018-12-31T18:23:38.456Z,3.87
2018-12-31T18:26:08.775Z,3.52
2018-12-31T18:28:38.040Z,3.30
2018-12-31T18:31:07.283Z,3.15
2018-12-31T18:33:37.268Z,3.90
2018-12-31T18:36:06.823Z,2.58
2018-12-31T18:38:36.576Z,3.30
2018-12-31T18:41:05.783Z,3.10
2018-12-31T18:43:35.023Z,3.40
2018-12-31T18:46:04.611Z,3.35
2018-12-31T18:48:33.830Z,3.42
2018-12-31T18:51:04.525Z,3.83
2018-12-31T18:53:33.834Z,4.10
2018-12-31T18:56:03.679Z,3.58
2018-12-31T18:58:32.855Z,4.58
2018-12-31T19:01:02.086Z,3.25
2018-12-31T19:03:31.832Z,4.22
2018-12-31T19:06:01.089Z,3.92
2018-12-31T19:08:30.492Z,4.72
2018-12-31T19:10:59.738Z,5.53
2018-12-31T19:13:29.443Z,4.25
2018-12-31T19:15:59.275Z,5.75
2018-12-31T19:18:29.153Z,5.10
2018-12-31T19:20:59.187Z,4.97
2018-12-31T19:23:28.411Z,4.50
2018-12-31T19:25:59.236Z,4.97
2018-12-31T19:28:28.449Z,4.25
2018-12-31T19:30:58.477Z,3.80
2018-12-31T19:33:27.863Z,4.70
2018-12-31T19:35:57.572Z,4.05
2018-12-31T19:38:30.211Z,3.80
2018-12-31T19:40:59.516Z,4.00
2018-12-31T19:43:28.743Z,4.00
2018-12-31T19:45:58.059Z,3.80
2018-12-31T19:48:27.863Z,4.45
2018-12-31T19:50:57.083Z,4.47
2018-12-31T19:53:26.515Z,4.62
2018-12-31T19:55:55.947Z,8.28
2018-12-31T19:58:26.836Z,13.93
2018-12-31T20:00:56.200Z,27.45
2018-12-31T20:03:25.461Z,4.30
2018-12-31T20:05:55.228Z,4.95
2018-12-31T20:08:24.476Z,6.58
2018-12-31T20:10:54.115Z,5.37
2018-12-31T20:13:23.282Z,10.60
2018-12-31T20:15:52.525Z,6.75
2018-12-31T20:18:21.784Z,5.28
2018-12-31T20:20:51.032Z,5.62
2018-12-31T20:23:20.810Z,6.30
2018-12-31T20:25:50.063Z,5.75
2018-12-31T20:28:19.766Z,6.87
2018-12-31T20:30:49.007Z,7.22
2018-12-31T20:33:18.967Z,5.62
2018-12-31T20:35:48.187Z,5.37
2018-12-31T20:38:17.434Z,4.90
2018-12-31T20:40:46.695Z,5.22
2018-12-31T20:43:17.103Z,4.35
2018-12-31T20:45:46.891Z,4.05
2018-12-31T20:48:16.860Z,3.98
2018-12-31T20:50:46.081Z,3.85
2018-12-31T20:53:15.252Z,4.05
2018-12-31T20:55:45.744Z,4.33
2018-12-31T20:58:14.977Z,3.92
2018-12-31T21:00:44.228Z,3.92
2018-12-31T21:03:13.624Z,4.22
2018-12-31T21:05:42.867Z,4.37
2018-12-31T21:08:12.676Z,4.28
2018-12-31T21:10:58.273Z,3.87
2018-12-31T21:13:27.504Z,4.12
2018-12-31T21:15:57.095Z,3.95
2018-12-31T21:18:26.752Z,4.00
2018-12-31T21:20:56.222Z,5.25
2018-12-31T21:23:25.894Z,4.50
2018-12-31T21:25:55.152Z,4.45
2018-12-31T21:28:25.314Z,5.50
2018-12-31T21:30:55.699Z,4.60
2018-12-31T21:33:24.966Z,4.58
2018-12-31T21:35:54.737Z,5.42
2018-12-31T21:38:23.999Z,5.30
2018-12-31T21:40:53.237Z,4.90
2018-12-31T21:43:22.787Z,4.37
2018-12-31T21:45:52.035Z,4.80
2018-12-31T21:48:21.259Z,5.40
2018-12-31T21:50:51.115Z,5.62
2018-12-31T21:53:20.374Z,5.60
2018-12-31T21:55:49.987Z,5.22
2018-12-31T21:58:19.498Z,5.55
2018-12-31T22:00:48.769Z,5.50
2018-12-31T22:03:18.020Z,5.35
2018-12-31T22:05:47.252Z,5.33
2018-12-31T22:08:16.514Z,6.08
2018-12-31T22:10:45.783Z,6.25
2018-12-31T22:13:15.643Z,5.80
2018-12-31T22:15:45.979Z,5.00
2018-12-31T22:18:15.224Z,6.20
2018-12-31T22:20:44.697Z,9.13
2018-12-31T22:23:13.995Z,7.15
2018-12-31T22:25:43.322Z,5.90
2018-12-31T22:28:12.559Z,5.72
2018-12-31T22:30:42.531Z,5.95
2018-12-31T22:33:11.879Z,6.97
2018-12-31T22:35:41.122Z,5.03
2018-12-31T22:38:10.299Z,5.72
2018-12-31T22:40:39.951Z,5.53
2018-12-31T22:43:09.528Z,5.67
2018-12-31T22:45:38.987Z,5.33
2018-12-31T22:48:08.236Z,6.25
2018-12-31T22:50:37.486Z,5.62
2018-12-31T22:53:07.441Z,5.67
2018-12-31T22:55:36.668Z,6.47
2018-12-31T22:58:06.191Z,5.30
2018-12-31T23:00:36.783Z,5.62
2018-12-31T23:03:06.339Z,7.15
2018-12-31T23:05:35.768Z,5.75
2018-12-31T23:08:04.991Z,5.55
2018-12-31T23:10:34.615Z,6.10
2018-12-31T23:13:03.763Z,5.78
2018-12-31T23:15:33.763Z,7.30
2018-12-31T23:18:02.914Z,6.78
2018-12-31T23:20:32.135Z,6.90
2018-12-31T23:23:01.728Z,6.28
2018-12-31T23:25:30.943Z,5.60
2018-12-31T23:28:00.596Z,6.92
2018-12-31T23:30:29.839Z,6.28
2018-12-31T23:32:59.877Z,5.70
2018-12-31T23:35:30.280Z,6.30
2018-12-31T23:38:00.616Z,5.92
2018-12-31T23:40:29.839Z,5.30
2018-12-31T23:43:06.103Z,5.67
2018-12-31T23:45:29.962Z,5.83
2018-12-31T23:47:59.398Z,5.47
2018-12-31T23:50:28.628Z,6.37
2018-12-31T23:52:58.858Z,5.67
2018-12-31T23:55:28.076Z,5.42
2018-12-31T23:57:57.312Z,5.12
